Time;durP1;ratioP1;P1;durP2;ratioP2;P2;SDS_P1;SDS_P2;PMS_P1;PMS_P2;Temp;Humidity;BMP_temperature;BMP_pressure;BME280_temperature;BME280_humidity;BME280_pressure;Samples;Min_cycle;Max_cycle;Signal;HPM_P1;HPM_P2
2023/06/29 00:01:02;;;;;;;3.83;2.20;;;;;;;;;;5052547;28;20021;-86
2023/06/29 00:03:28;;;;;;;4.97;1.90;;;;;;;;;;5052954;28;20448;-85
2023/06/29 00:05:55;;;;;;;3.40;1.63;;;;;;;;;;5059771;28;20051;-86
2023/06/29 00:08:23;;;;;;;2.03;1.80;;;;;;;;;;5054667;28;20029;-87
2023/06/29 00:10:50;;;;;;;5.10;2.33;;;;;;;;;;5068350;28;20036;-82
2023/06/29 00:13:16;;;;;;;5.45;2.33;;;;;;;;;;5052390;28;20036;-87
2023/06/29 00:15:42;;;;;;;3.17;1.65;;;;;;;;;;5069959;28;21581;-86
2023/06/29 00:18:09;;;;;;;3.35;1.90;;;;;;;;;;5060825;28;20048;-86
2023/06/29 00:20:35;;;;;;;3.80;2.75;;;;;;;;;;5049992;28;20481;-87
2023/06/29 00:23:02;;;;;;;5.50;2.58;;;;;;;;;;5050480;28;20112;-85
2023/06/29 00:25:28;;;;;;;3.95;2.10;;;;;;;;;;5046419;28;20094;-83
2023/06/29 00:27:54;;;;;;;4.88;2.17;;;;;;;;;;5037679;28;20033;-84
2023/06/29 00:30:20;;;;;;;4.28;1.98;;;;;;;;;;5046961;28;20048;-83
2023/06/29 00:32:47;;;;;;;5.15;2.13;;;;;;;;;;5054865;28;20517;-85
2023/06/29 00:35:13;;;;;;;2.58;2.08;;;;;;;;;;5063702;28;20031;-86
2023/06/29 00:37:42;;;;;;;4.03;2.03;;;;;;;;;;5056837;28;20478;-86
2023/06/29 00:40:09;;;;;;;2.78;1.90;;;;;;;;;;5047396;28;20136;-83
2023/06/29 00:42:35;;;;;;;5.80;2.10;;;;;;;;;;5051274;28;20100;-85
2023/06/29 00:45:02;;;;;;;4.32;2.00;;;;;;;;;;5043690;28;20028;-85
2023/06/29 00:47:28;;;;;;;3.55;2.10;;;;;;;;;;5048946;28;20025;-83
2023/06/29 00:49:55;;;;;;;4.25;2.38;;;;;;;;;;5063986;28;20025;-85
2023/06/29 00:52:22;;;;;;;6.20;2.13;;;;;;;;;;5056938;28;20033;-87
2023/06/29 00:54:48;;;;;;;2.78;1.85;;;;;;;;;;5067416;28;20031;-86
2023/06/29 00:57:14;;;;;;;3.08;2.35;;;;;;;;;;5052671;28;20032;-87
2023/06/29 00:59:40;;;;;;;4.13;2.08;;;;;;;;;;5050252;28;20535;-87
2023/06/29 01:02:08;;;;;;;2.85;2.15;;;;;;;;;;5049739;28;20139;-87
2023/06/29 01:04:35;;;;;;;5.57;2.15;;;;;;;;;;5057877;28;20029;-87
2023/06/29 01:07:06;;;;;;;4.00;2.10;;;;;;;;;;5051086;28;20032;-86
2023/06/29 01:09:33;;;;;;;3.95;1.95;;;;;;;;;;5049471;28;20041;-84
2023/06/29 01:12:00;;;;;;;3.90;1.90;;;;;;;;;;5064206;28;20416;-87
2023/06/29 01:14:27;;;;;;;3.95;2.15;;;;;;;;;;5050306;28;20710;-85
2023/06/29 01:16:54;;;;;;;3.03;1.70;;;;;;;;;;5046984;28;20107;-86
2023/06/29 01:19:28;;;;;;;3.38;1.95;;;;;;;;;;5049656;28;20100;-85
2023/06/29 01:22:05;;;;;;;5.10;1.95;;;;;;;;;;5047920;28;20385;-86
2023/06/29 01:24:39;;;;;;;2.97;2.20;;;;;;;;;;5050267;28;20078;-84
2023/06/29 01:27:06;;;;;;;6.88;2.10;;;;;;;;;;5058336;28;20028;-86
2023/06/29 01:29:32;;;;;;;4.00;1.90;;;;;;;;;;5063387;28;20032;-84
2023/06/29 01:32:03;;;;;;;4.38;2.15;;;;;;;;;;5049185;28;20032;-86
2023/06/29 01:34:29;;;;;;;4.10;2.08;;;;;;;;;;5059354;28;20029;-84
2023/06/29 01:37:01;;;;;;;3.03;1.92;;;;;;;;;;5060599;28;20087;-86
2023/06/29 01:39:29;;;;;;;2.85;1.90;;;;;;;;;;5065531;28;20046;-87
2023/06/29 01:41:56;;;;;;;3.88;2.10;;;;;;;;;;5048843;28;20074;-82
2023/06/29 01:44:22;;;;;;;3.28;2.60;;;;;;;;;;5049823;28;20033;-85
2023/06/29 01:46:49;;;;;;;5.43;1.90;;;;;;;;;;5064081;28;20035;-87
2023/06/29 01:49:15;;;;;;;4.00;1.90;;;;;;;;;;5067226;28;20041;-84
2023/06/29 01:51:41;;;;;;;6.15;2.13;;;;;;;;;;5045922;28;20478;-85
2023/06/29 01:54:07;;;;;;;4.40;2.03;;;;;;;;;;5046836;28;20054;-87
2023/06/29 01:56:33;;;;;;;4.65;2.53;;;;;;;;;;5049590;28;20094;-85
2023/06/29 01:59:01;;;;;;;4.82;1.95;;;;;;;;;;5066146;28;20021;-86
2023/06/29 02:01:28;;;;;;;5.38;2.28;;;;;;;;;;5052823;28;20381;-84
2023/06/29 02:03:54;;;;;;;3.97;2.10;;;;;;;;;;5053143;28;20068;-81
2023/06/29 02:06:20;;;;;;;4.18;2.10;;;;;;;;;;5064573;28;20037;-83
2023/06/29 02:08:46;;;;;;;3.50;2.65;;;;;;;;;;5049741;28;20032;-83
2023/06/29 02:11:12;;;;;;;3.13;2.03;;;;;;;;;;5051933;28;20577;-84
2023/06/29 02:13:38;;;;;;;5.93;2.42;;;;;;;;;;5052366;28;20111;-85
2023/06/29 02:16:05;;;;;;;4.63;2.13;;;;;;;;;;5059852;28;20025;-85
2023/06/29 02:18:31;;;;;;;5.03;3.65;;;;;;;;;;5065012;28;20021;-82
2023/06/29 02:20:57;;;;;;;6.05;2.55;;;;;;;;;;5067233;28;20013;-82
2023/06/29 02:23:23;;;;;;;3.80;2.40;;;;;;;;;;5064245;28;20494;-81
2023/06/29 02:25:50;;;;;;;5.28;2.25;;;;;;;;;;5051035;28;20036;-81
2023/06/29 02:28:16;;;;;;;4.93;2.40;;;;;;;;;;5049858;28;20029;-82
2023/06/29 02:30:42;;;;;;;5.18;2.40;;;;;;;;;;5068148;28;20037;-83
2023/06/29 02:33:08;;;;;;;6.30;3.00;;;;;;;;;;5068800;28;20034;-83
2023/06/29 02:35:34;;;;;;;6.20;2.10;;;;;;;;;;5072905;28;20033;-82
2023/06/29 02:38:00;;;;;;;3.90;2.40;;;;;;;;;;5058794;28;20366;-82
2023/06/29 02:40:26;;;;;;;4.32;2.35;;;;;;;;;;5055321;28;20052;-83
2023/06/29 02:42:53;;;;;;;5.68;2.55;;;;;;;;;;5074137;28;20040;-83
2023/06/29 02:45:19;;;;;;;3.45;2.70;;;;;;;;;;5077369;28;20093;-83
2023/06/29 02:47:45;;;;;;;3.63;2.00;;;;;;;;;;5060049;28;20024;-82
2023/06/29 02:50:11;;;;;;;5.90;2.13;;;;;;;;;;5079264;28;20052;-81
2023/06/29 02:52:37;;;;;;;3.85;2.85;;;;;;;;;;5080969;28;20044;-83
2023/06/29 02:55:03;;;;;;;3.72;2.20;;;;;;;;;;5061490;28;20052;-82
2023/06/29 02:57:29;;;;;;;3.92;2.10;;;;;;;;;;5063672;28;20029;-82
2023/06/29 02:59:56;;;;;;;4.72;2.53;;;;;;;;;;5058441;28;20048;-81
2023/06/29 03:02:22;;;;;;;4.15;2.15;;;;;;;;;;5076316;28;20040;-82
2023/06/29 03:04:48;;;;;;;3.65;2.20;;;;;;;;;;5072093;28;20025;-82
2023/06/29 03:07:14;;;;;;;2.55;2.10;;;;;;;;;;5077763;28;20029;-81
2023/06/29 03:09:40;;;;;;;2.35;2.10;;;;;;;;;;5065796;28;20029;-82
2023/06/29 03:12:06;;;;;;;6.00;2.28;;;;;;;;;;5066747;28;20021;-81
2023/06/29 03:14:32;;;;;;;5.25;2.40;;;;;;;;;;5075791;28;20047;-81
2023/06/29 03:16:59;;;;;;;4.63;2.20;;;;;;;;;;5065444;28;20047;-81
2023/06/29 03:19:25;;;;;;;2.92;2.30;;;;;;;;;;5061158;28;20386;-83
2023/06/29 03:21:51;;;;;;;4.60;2.25;;;;;;;;;;5066430;28;20061;-83
2023/06/29 03:24:17;;;;;;;3.58;2.70;;;;;;;;;;5063629;28;20049;-82
2023/06/29 03:26:43;;;;;;;3.22;2.75;;;;;;;;;;5063150;28;20040;-84
2023/06/29 03:29:09;;;;;;;6.00;2.90;;;;;;;;;;5075471;28;20034;-81
2023/06/29 03:31:35;;;;;;;4.95;2.67;;;;;;;;;;5066692;28;20228;-83
2023/06/29 03:34:01;;;;;;;3.05;2.50;;;;;;;;;;5081233;28;20033;-81
2023/06/29 03:36:27;;;;;;;7.47;3.25;;;;;;;;;;5067064;28;20451;-81
2023/06/29 03:38:53;;;;;;;6.35;2.80;;;;;;;;;;5084764;28;20029;-81
2023/06/29 03:41:19;;;;;;;3.60;2.40;;;;;;;;;;5082851;28;20036;-83
2023/06/29 03:43:46;;;;;;;4.20;2.67;;;;;;;;;;5070384;28;20565;-81
2023/06/29 03:46:12;;;;;;;6.70;2.97;;;;;;;;;;5083957;28;20018;-80
2023/06/29 03:48:38;;;;;;;4.07;2.92;;;;;;;;;;5068367;28;20076;-82
2023/06/29 03:51:04;;;;;;;3.72;2.92;;;;;;;;;;5073245;28;20044;-81
2023/06/29 03:53:31;;;;;;;5.03;3.08;;;;;;;;;;5074946;28;20013;-81
2023/06/29 03:55:57;;;;;;;4.78;2.70;;;;;;;;;;5072599;28;20033;-81
2023/06/29 03:58:23;;;;;;;4.45;2.80;;;;;;;;;;5084683;28;20074;-83
2023/06/29 04:00:50;;;;;;;4.57;3.08;;;;;;;;;;5084780;28;20017;-81
2023/06/29 04:03:17;;;;;;;5.10;2.85;;;;;;;;;;5084874;22;20403;-73
2023/06/29 04:05:43;;;;;;;4.22;3.10;;;;;;;;;;5031536;28;20032;-74
2023/06/29 04:08:09;;;;;;;9.73;3.95;;;;;;;;;;5025133;28;20105;-73
2023/06/29 04:10:35;;;;;;;3.75;2.63;;;;;;;;;;5021225;28;20044;-74
2023/06/29 04:13:01;;;;;;;4.00;3.35;;;;;;;;;;5026447;28;20442;-72
2023/06/29 04:15:28;;;;;;;14.15;3.50;;;;;;;;;;5019962;28;20026;-73
2023/06/29 04:17:54;;;;;;;6.07;3.10;;;;;;;;;;5029208;28;20045;-74
2023/06/29 04:20:20;;;;;;;4.35;2.83;;;;;;;;;;5025084;28;20160;-74
2023/06/29 04:22:46;;;;;;;6.15;3.13;;;;;;;;;;5028701;28;20392;-74
2023/06/29 04:25:12;;;;;;;3.47;3.05;;;;;;;;;;5028055;28;20033;-74
2023/06/29 04:27:38;;;;;;;4.95;3.03;;;;;;;;;;5026871;28;20056;-74
2023/06/29 04:30:05;;;;;;;3.78;2.60;;;;;;;;;;5025597;28;20120;-74
2023/06/29 04:32:32;;;;;;;3.60;2.65;;;;;;;;;;5028565;28;20032;-75
2023/06/29 04:34:59;;;;;;;6.30;2.80;;;;;;;;;;5029626;28;20021;-75
2023/06/29 04:37:25;;;;;;;9.52;3.55;;;;;;;;;;5034289;28;20021;-75
2023/06/29 04:39:52;;;;;;;4.43;3.00;;;;;;;;;;5028560;28;20490;-73
2023/06/29 04:42:18;;;;;;;3.90;2.75;;;;;;;;;;5029291;28;20033;-73
2023/06/29 04:44:44;;;;;;;8.32;2.90;;;;;;;;;;5038929;28;20030;-72
2023/06/29 04:47:11;;;;;;;4.47;2.80;;;;;;;;;;5015395;28;20026;-74
2023/06/29 04:49:39;;;;;;;6.78;2.78;;;;;;;;;;5027840;28;20415;-72
2023/06/29 04:52:06;;;;;;;4.72;3.03;;;;;;;;;;5026962;28;20030;-75
2023/06/29 04:54:32;;;;;;;7.55;2.90;;;;;;;;;;5029531;28;20030;-74
2023/06/29 04:56:59;;;;;;;7.05;3.20;;;;;;;;;;5020343;28;20030;-74
2023/06/29 04:59:26;;;;;;;5.95;2.72;;;;;;;;;;5031765;28;20048;-71
2023/06/29 05:01:53;;;;;;;3.90;2.75;;;;;;;;;;5032319;28;20037;-73
2023/06/29 05:04:19;;;;;;;4.15;2.58;;;;;;;;;;5030029;28;20399;-74
2023/06/29 05:06:45;;;;;;;4.70;2.83;;;;;;;;;;5034941;28;20043;-73
2023/06/29 05:09:12;;;;;;;5.63;2.67;;;;;;;;;;5028774;28;20036;-74
2023/06/29 05:11:38;;;;;;;4.32;2.60;;;;;;;;;;5024173;28;20053;-74
2023/06/29 05:14:04;;;;;;;6.10;2.90;;;;;;;;;;5028321;28;20559;-75
2023/06/29 05:16:30;;;;;;;5.47;2.58;;;;;;;;;;5032129;28;20033;-74
2023/06/29 05:18:57;;;;;;;7.68;3.00;;;;;;;;;;5029805;28;20028;-73
2023/06/29 05:21:26;;;;;;;4.60;3.13;;;;;;;;;;5028632;28;20203;-73
2023/06/29 05:23:53;;;;;;;6.22;2.70;;;;;;;;;;5025606;28;20448;-74
2023/06/29 05:26:19;;;;;;;5.93;2.70;;;;;;;;;;5026749;28;20029;-74
2023/06/29 05:28:45;;;;;;;5.47;2.85;;;;;;;;;;5025505;28;20033;-74
2023/06/29 05:31:12;;;;;;;3.33;2.83;;;;;;;;;;5024654;28;20581;-74
2023/06/29 05:33:38;;;;;;;3.80;2.42;;;;;;;;;;5027451;28;20032;-75
2023/06/29 05:36:04;;;;;;;5.22;3.25;;;;;;;;;;5030970;28;20387;-73
2023/06/29 05:38:30;;;;;;;2.80;2.50;;;;;;;;;;5020617;28;20033;-75
2023/06/29 05:40:56;;;;;;;4.78;2.75;;;;;;;;;;5025305;28;20026;-74
2023/06/29 05:43:23;;;;;;;3.60;2.50;;;;;;;;;;5029025;28;20549;-75
2023/06/29 05:45:49;;;;;;;5.28;2.65;;;;;;;;;;5025527;28;20436;-75
2023/06/29 05:48:15;;;;;;;3.80;2.60;;;;;;;;;;5024847;28;20025;-75
2023/06/29 05:50:41;;;;;;;5.35;2.83;;;;;;;;;;5032478;28;20309;-74
2023/06/29 05:53:08;;;;;;;8.88;2.50;;;;;;;;;;5031929;28;20503;-74
2023/06/29 05:55:34;;;;;;;4.50;3.03;;;;;;;;;;5034244;28;20116;-74
2023/06/29 05:58:00;;;;;;;5.47;2.60;;;;;;;;;;5024756;28;20407;-74
2023/06/29 06:00:26;;;;;;;4.18;2.67;;;;;;;;;;5029237;28;20026;-75
2023/06/29 06:02:53;;;;;;;4.72;3.13;;;;;;;;;;5039773;28;20052;-74
2023/06/29 06:05:19;;;;;;;7.50;2.80;;;;;;;;;;5043056;28;20038;-73
2023/06/29 06:07:45;;;;;;;4.82;2.65;;;;;;;;;;5038749;28;20077;-73
2023/06/29 06:10:11;;;;;;;2.90;2.35;;;;;;;;;;5033695;28;20029;-74
2023/06/29 06:12:37;;;;;;;5.70;2.33;;;;;;;;;;5024660;28;20032;-75
2023/06/29 06:15:05;;;;;;;5.43;2.75;;;;;;;;;;5022992;28;20057;-75
2023/06/29 06:17:31;;;;;;;3.63;3.08;;;;;;;;;;5023815;28;20099;-74
2023/06/29 06:19:58;;;;;;;6.00;2.70;;;;;;;;;;5024871;28;20495;-74
2023/06/29 06:22:24;;;;;;;3.60;2.30;;;;;;;;;;5021611;28;20037;-73
2023/06/29 06:24:50;;;;;;;6.47;2.42;;;;;;;;;;5027409;28;20387;-74
2023/06/29 06:27:16;;;;;;;5.80;2.65;;;;;;;;;;5024080;28;20026;-73
2023/06/29 06:29:43;;;;;;;3.15;2.20;;;;;;;;;;5028151;28;20429;-74
2023/06/29 06:32:10;;;;;;;4.47;2.33;;;;;;;;;;5029372;28;20286;-73
2023/06/29 06:34:37;;;;;;;3.05;1.98;;;;;;;;;;5024462;28;20053;-73
2023/06/29 06:37:05;;;;;;;8.18;2.45;;;;;;;;;;5025092;28;20132;-75
2023/06/29 06:39:32;;;;;;;3.25;2.40;;;;;;;;;;5025724;28;20111;-73
2023/06/29 06:42:01;;;;;;;3.45;2.20;;;;;;;;;;5025234;28;20045;-73
2023/06/29 06:44:27;;;;;;;5.22;2.22;;;;;;;;;;5022537;28;20029;-72
2023/06/29 06:46:53;;;;;;;6.68;2.20;;;;;;;;;;5023740;28;20052;-73
2023/06/29 06:49:19;;;;;;;2.80;2.03;;;;;;;;;;5022533;28;20034;-73
2023/06/29 06:51:45;;;;;;;6.95;2.80;;;;;;;;;;5024017;28;20037;-73
2023/06/29 06:54:11;;;;;;;2.38;2.10;;;;;;;;;;5019749;28;20060;-72
2023/06/29 06:56:37;;;;;;;4.95;2.08;;;;;;;;;;5020095;28;20124;-73
2023/06/29 06:59:04;;;;;;;9.77;2.65;;;;;;;;;;5018622;28;20108;-73
2023/06/29 07:01:30;;;;;;;7.25;2.40;;;;;;;;;;5024293;28;20030;-73
2023/06/29 07:03:57;;;;;;;4.65;2.10;;;;;;;;;;5022743;28;20103;-73
2023/06/29 07:06:23;;;;;;;6.57;2.50;;;;;;;;;;5020599;28;20029;-74
2023/06/29 07:08:49;;;;;;;3.92;2.00;;;;;;;;;;5021397;28;20558;-74
2023/06/29 07:11:15;;;;;;;6.72;2.53;;;;;;;;;;5023321;28;20279;-72
2023/06/29 07:13:42;;;;;;;4.13;2.03;;;;;;;;;;5018223;28;20086;-73
2023/06/29 07:16:08;;;;;;;5.07;2.10;;;;;;;;;;5024207;28;20037;-73
2023/06/29 07:18:37;;;;;;;5.47;2.03;;;;;;;;;;5018828;28;20033;-73
2023/06/29 07:21:03;;;;;;;5.13;2.25;;;;;;;;;;5025503;28;20021;-73
2023/06/29 07:23:29;;;;;;;3.88;2.28;;;;;;;;;;5022866;28;20033;-73
2023/06/29 07:25:55;;;;;;;4.15;2.20;;;;;;;;;;5024740;28;20075;-73
2023/06/29 07:28:22;;;;;;;4.15;2.10;;;;;;;;;;5020509;28;21221;-74
2023/06/29 07:30:48;;;;;;;3.13;2.05;;;;;;;;;;5023364;28;20030;-74
2023/06/29 07:33:14;;;;;;;5.65;1.85;;;;;;;;;;5021919;28;20408;-74
2023/06/29 07:35:40;;;;;;;3.95;2.30;;;;;;;;;;5023550;28;20072;-74
2023/06/29 07:38:06;;;;;;;4.15;2.20;;;;;;;;;;5020492;28;20096;-73
2023/06/29 07:40:32;;;;;;;4.13;2.35;;;;;;;;;;5020616;28;20636;-73
2023/06/29 07:42:58;;;;;;;5.78;2.85;;;;;;;;;;5021704;28;20025;-73
2023/06/29 07:45:24;;;;;;;3.33;2.20;;;;;;;;;;5025964;28;20029;-73
2023/06/29 07:47:51;;;;;;;12.80;2.47;;;;;;;;;;5019203;28;20037;-74
2023/06/29 07:50:17;;;;;;;5.68;2.60;;;;;;;;;;5020719;28;20046;-74
2023/06/29 07:52:43;;;;;;;5.15;2.28;;;;;;;;;;5024051;28;20033;-74
2023/06/29 07:55:09;;;;;;;3.03;2.20;;;;;;;;;;5024743;28;20112;-74
2023/06/29 07:57:36;;;;;;;5.47;2.30;;;;;;;;;;5019260;28;20040;-74
2023/06/29 08:00:02;;;;;;;3.08;2.33;;;;;;;;;;5023151;28;20080;-74
2023/06/29 08:02:29;;;;;;;5.20;2.20;;;;;;;;;;5026343;28;20018;-73
2023/06/29 08:04:55;;;;;;;7.28;2.60;;;;;;;;;;5025185;28;20041;-74
2023/06/29 08:07:22;;;;;;;3.20;2.00;;;;;;;;;;5019203;28;20030;-74
2023/06/29 08:09:48;;;;;;;8.88;2.58;;;;;;;;;;5022627;28;20044;-74
2023/06/29 08:12:14;;;;;;;6.68;2.78;;;;;;;;;;5016232;28;20036;-74
2023/06/29 08:14:40;;;;;;;3.92;2.15;;;;;;;;;;5028110;28;20041;-74
2023/06/29 08:17:06;;;;;;;4.63;2.10;;;;;;;;;;5025488;28;20044;-74
2023/06/29 08:19:32;;;;;;;3.88;2.30;;;;;;;;;;5028881;28;20211;-74
2023/06/29 08:21:58;;;;;;;4.43;2.13;;;;;;;;;;5029380;28;20017;-74
2023/06/29 08:24:24;;;;;;;4.43;2.00;;;;;;;;;;5025831;28;20088;-74
2023/06/29 08:26:50;;;;;;;7.72;2.50;;;;;;;;;;5023280;28;20526;-74
2023/06/29 08:29:16;;;;;;;8.35;2.40;;;;;;;;;;5024874;28;20041;-74
2023/06/29 08:31:43;;;;;;;9.15;2.30;;;;;;;;;;5024275;28;20061;-75
2023/06/29 08:34:09;;;;;;;4.40;2.13;;;;;;;;;;5019329;28;20399;-74
2023/06/29 08:36:36;;;;;;;4.22;2.00;;;;;;;;;;5026620;28;20029;-74
2023/06/29 08:39:02;;;;;;;3.22;2.28;;;;;;;;;;5026652;28;20064;-76
2023/06/29 08:41:28;;;;;;;6.05;2.22;;;;;;;;;;5027953;28;20033;-75
2023/06/29 08:43:54;;;;;;;5.57;2.40;;;;;;;;;;5024626;28;20057;-75
2023/06/29 08:46:20;;;;;;;7.05;2.30;;;;;;;;;;5022691;28;20052;-75
2023/06/29 08:48:47;;;;;;;6.10;2.40;;;;;;;;;;5029555;28;20039;-75
2023/06/29 08:51:16;;;;;;;5.72;2.22;;;;;;;;;;5026378;28;20033;-76
2023/06/29 08:53:42;;;;;;;5.93;2.40;;;;;;;;;;5023730;28;20029;-76
2023/06/29 08:56:09;;;;;;;5.10;2.28;;;;;;;;;;5025875;28;20035;-75
2023/06/29 08:58:36;;;;;;;10.02;2.65;;;;;;;;;;5022884;28;20594;-75
2023/06/29 09:01:03;;;;;;;5.63;2.30;;;;;;;;;;5028293;28;20117;-75
2023/06/29 09:03:29;;;;;;;3.45;2.00;;;;;;;;;;5034010;28;20038;-76
2023/06/29 09:05:56;;;;;;;7.40;2.95;;;;;;;;;;5025562;28;20435;-74
2023/06/29 09:08:26;;;;;;;2.85;2.10;;;;;;;;;;5030432;28;20036;-75
2023/06/29 09:10:53;;;;;;;4.85;3.08;;;;;;;;;;5035747;28;20112;-74
2023/06/29 09:13:19;;;;;;;5.68;3.20;;;;;;;;;;5036084;28;20101;-76
2023/06/29 09:15:45;;;;;;;4.25;1.98;;;;;;;;;;5045642;28;20037;-75
2023/06/29 09:18:12;;;;;;;4.28;2.10;;;;;;;;;;5046821;28;20117;-76
2023/06/29 09:20:39;;;;;;;6.63;2.22;;;;;;;;;;5039822;28;20025;-73
2023/06/29 09:23:05;;;;;;;5.70;2.85;;;;;;;;;;5036105;28;20090;-75
2023/06/29 09:25:33;;;;;;;4.80;1.90;;;;;;;;;;5029423;28;20108;-76
2023/06/29 09:28:02;;;;;;;4.97;1.77;;;;;;;;;;5028272;28;20139;-76
2023/06/29 09:30:34;;;;;;;2.63;2.03;;;;;;;;;;5029233;28;20033;-76
2023/06/29 09:33:05;;;;;;;4.10;2.35;;;;;;;;;;5028073;28;20033;-74
2023/06/29 09:35:31;;;;;;;5.13;2.00;;;;;;;;;;5027915;28;20112;-75
2023/06/29 09:37:57;;;;;;;3.17;2.00;;;;;;;;;;5032081;28;20029;-74
2023/06/29 09:40:23;;;;;;;4.28;2.22;;;;;;;;;;5032109;28;20025;-75
2023/06/29 09:42:50;;;;;;;3.85;2.03;;;;;;;;;;5034758;28;20036;-74
2023/06/29 09:45:16;;;;;;;4.85;2.20;;;;;;;;;;5034131;28;20021;-73
2023/06/29 09:47:49;;;;;;;3.40;2.10;;;;;;;;;;5028586;28;20650;-75
2023/06/29 09:50:19;;;;;;;2.80;1.90;;;;;;;;;;5028121;28;20048;-75
2023/06/29 09:52:46;;;;;;;4.75;2.30;;;;;;;;;;5030653;28;20522;-76
2023/06/29 09:55:12;;;;;;;2.92;1.98;;;;;;;;;;5030495;28;20111;-76
2023/06/29 09:57:42;;;;;;;2.13;1.90;;;;;;;;;;5031308;28;20033;-75
2023/06/29 10:00:12;;;;;;;3.55;1.88;;;;;;;;;;5029015;28;20029;-76
2023/06/29 10:02:39;;;;;;;4.30;2.00;;;;;;;;;;5023610;28;20026;-75
2023/06/29 10:05:06;;;;;;;5.07;2.08;;;;;;;;;;5023723;28;20036;-76
2023/06/29 10:07:34;;;;;;;5.90;1.80;;;;;;;;;;5026978;28;20051;-75
2023/06/29 10:10:00;;;;;;;2.90;2.38;;;;;;;;;;5019771;28;20061;-75
2023/06/29 10:12:27;;;;;;;5.45;2.28;;;;;;;;;;5024026;28;20138;-76
2023/06/29 10:14:56;;;;;;;4.25;2.08;;;;;;;;;;5026474;28;20033;-76
2023/06/29 10:17:37;;;;;;;5.72;2.20;;;;;;;;;;5021981;28;20030;-76
2023/06/29 10:20:05;;;;;;;3.53;2.13;;;;;;;;;;5023389;28;20892;-75
2023/06/29 10:22:32;;;;;;;8.02;2.30;;;;;;;;;;5026351;28;20060;-75
2023/06/29 10:25:00;;;;;;;6.30;2.17;;;;;;;;;;5025982;28;20419;-76
2023/06/29 10:27:29;;;;;;;4.78;2.42;;;;;;;;;;5021215;28;20037;-76
2023/06/29 10:29:55;;;;;;;4.13;2.00;;;;;;;;;;5017152;28;20486;-76
2023/06/29 10:32:37;;;;;;;2.95;2.65;;;;;;;;;;5022252;28;20029;-74
2023/06/29 10:35:05;;;;;;;4.25;2.50;;;;;;;;;;5025520;28;20021;-74
2023/06/29 10:37:32;;;;;;;2.88;1.90;;;;;;;;;;5021026;28;20032;-76
2023/06/29 10:39:59;;;;;;;4.45;2.00;;;;;;;;;;5023030;28;20033;-76
2023/06/29 10:42:25;;;;;;;3.08;2.22;;;;;;;;;;5021635;28;20338;-75
2023/06/29 10:44:51;;;;;;;3.00;2.00;;;;;;;;;;5025858;28;20041;-75
2023/06/29 10:47:39;;;;;;;3.42;2.05;;;;;;;;;;5022136;28;20154;-76
2023/06/29 10:50:12;;;;;;;2.33;2.03;;;;;;;;;;5022067;28;20111;-75
2023/06/29 10:52:42;;;;;;;5.32;2.25;;;;;;;;;;5019068;28;20071;-74
2023/06/29 10:55:15;;;;;;;3.42;1.90;;;;;;;;;;5021047;28;20029;-75
2023/06/29 10:57:48;;;;;;;5.15;2.25;;;;;;;;;;5020882;28;20061;-76
2023/06/29 11:00:15;;;;;;;7.93;2.60;;;;;;;;;;5019347;28;20488;-75
2023/06/29 11:02:42;;;;;;;4.18;2.25;;;;;;;;;;5021527;28;20029;-74
2023/06/29 11:05:12;;;;;;;4.75;2.10;;;;;;;;;;5022560;28;20409;-76
2023/06/29 11:07:38;;;;;;;4.55;2.15;;;;;;;;;;5021866;28;20029;-75
2023/06/29 11:10:04;;;;;;;5.00;2.80;;;;;;;;;;5022837;28;20031;-75
2023/06/29 11:12:31;;;;;;;4.78;2.75;;;;;;;;;;5022329;28;20029;-76
2023/06/29 11:14:57;;;;;;;4.82;2.20;;;;;;;;;;5019669;28;20036;-76
2023/06/29 11:17:23;;;;;;;3.90;2.03;;;;;;;;;;5023783;28;20030;-76
2023/06/29 11:19:50;;;;;;;3.35;1.88;;;;;;;;;;5019971;28;20132;-75
2023/06/29 11:22:19;;;;;;;2.83;1.90;;;;;;;;;;5020253;28;20030;-75
2023/06/29 11:24:45;;;;;;;4.18;2.03;;;;;;;;;;5021235;28;20089;-76
2023/06/29 11:27:11;;;;;;;4.15;2.10;;;;;;;;;;5022260;28;20038;-76
2023/06/29 11:29:38;;;;;;;3.67;2.00;;;;;;;;;;5021495;28;20155;-75
2023/06/29 11:32:08;;;;;;;3.60;2.40;;;;;;;;;;5024436;28;20449;-76
2023/06/29 11:34:34;;;;;;;3.60;2.50;;;;;;;;;;5021219;28;20495;-75
2023/06/29 11:37:00;;;;;;;6.28;2.60;;;;;;;;;;5023900;28;20518;-76
2023/06/29 11:39:30;;;;;;;4.28;2.13;;;;;;;;;;5020837;28;20033;-76
2023/06/29 11:41:56;;;;;;;2.85;2.00;;;;;;;;;;5027450;28;20112;-76
2023/06/29 11:44:26;;;;;;;5.35;2.83;;;;;;;;;;5016305;28;20127;-76
2023/06/29 11:46:56;;;;;;;3.63;2.65;;;;;;;;;;5023823;28;20529;-76
2023/06/29 11:49:22;;;;;;;2.90;1.65;;;;;;;;;;5028184;28;20051;-76
2023/06/29 11:51:49;;;;;;;3.85;2.00;;;;;;;;;;5026965;28;20409;-76
2023/06/29 11:54:15;;;;;;;3.80;2.30;;;;;;;;;;5024409;28;20036;-76
2023/06/29 11:56:43;;;;;;;2.83;2.47;;;;;;;;;;5026802;28;20080;-75
2023/06/29 11:59:10;;;;;;;6.03;2.20;;;;;;;;;;5028866;28;20055;-74
2023/06/29 12:01:40;;;;;;;3.85;1.92;;;;;;;;;;5025285;28;20030;-74
2023/06/29 12:04:06;;;;;;;8.20;2.25;;;;;;;;;;5024267;28;20048;-73
2023/06/29 12:06:50;;;;;;;4.53;3.00;;;;;;;;;;5036178;28;20553;-73
2023/06/29 12:09:16;;;;;;;4.22;2.25;;;;;;;;;;5028739;28;20057;-74
2023/06/29 12:11:42;;;;;;;5.22;2.13;;;;;;;;;;5027678;28;20107;-74
2023/06/29 12:14:09;;;;;;;5.10;1.90;;;;;;;;;;5026613;28;20025;-74
2023/06/29 12:16:41;;;;;;;2.17;1.83;;;;;;;;;;5029352;28;20033;-74
2023/06/29 12:19:13;;;;;;;3.35;2.63;;;;;;;;;;5027566;28;20513;-75
2023/06/29 12:21:40;;;;;;;4.63;1.90;;;;;;;;;;5032441;28;20104;-74
2023/06/29 12:24:06;;;;;;;3.60;2.13;;;;;;;;;;5039241;28;20048;-75
2023/06/29 12:26:32;;;;;;;3.38;2.00;;;;;;;;;;5036173;28;20475;-75
2023/06/29 12:28:58;;;;;;;2.75;2.10;;;;;;;;;;5032370;28;20036;-75
2023/06/29 12:31:25;;;;;;;3.83;1.90;;;;;;;;;;5028806;28;20399;-75
2023/06/29 12:33:53;;;;;;;5.82;2.47;;;;;;;;;;5025313;28;20036;-75
2023/06/29 12:36:19;;;;;;;4.85;2.28;;;;;;;;;;5027264;28;20037;-75
2023/06/29 12:38:46;;;;;;;5.65;2.10;;;;;;;;;;5023771;28;20033;-75
2023/06/29 12:41:12;;;;;;;4.70;2.08;;;;;;;;;;5025676;28;20029;-74
2023/06/29 12:43:38;;;;;;;3.90;2.25;;;;;;;;;;5028988;28;20070;-74
2023/06/29 12:46:04;;;;;;;3.40;2.35;;;;;;;;;;5025424;28;20025;-74
2023/06/29 12:48:30;;;;;;;4.00;2.45;;;;;;;;;;5023769;28;20025;-74
2023/06/29 12:50:59;;;;;;;3.33;1.85;;;;;;;;;;5023146;28;20025;-74
2023/06/29 12:53:28;;;;;;;4.85;2.10;;;;;;;;;;5026479;28;20140;-74
2023/06/29 12:55:54;;;;;;;3.97;2.10;;;;;;;;;;5023648;28;20112;-74
2023/06/29 12:58:21;;;;;;;7.85;2.63;;;;;;;;;;5026205;28;20391;-74
2023/06/29 13:00:47;;;;;;;5.03;2.85;;;;;;;;;;5025780;28;20033;-76
2023/06/29 13:03:14;;;;;;;4.75;2.10;;;;;;;;;;5025163;28;20139;-74
2023/06/29 13:05:40;;;;;;;4.25;2.30;;;;;;;;;;5025463;28;20026;-75
2023/06/29 13:08:06;;;;;;;3.20;2.03;;;;;;;;;;5023520;28;20029;-74
2023/06/29 13:10:33;;;;;;;4.18;2.35;;;;;;;;;;5025710;28;20122;-74
2023/06/29 13:13:02;;;;;;;6.05;2.15;;;;;;;;;;5025655;28;20133;-75
2023/06/29 13:15:29;;;;;;;5.70;2.20;;;;;;;;;;5033700;28;20120;-73
2023/06/29 13:17:55;;;;;;;6.32;2.33;;;;;;;;;;5026537;28;20091;-74
2023/06/29 13:20:21;;;;;;;3.05;2.08;;;;;;;;;;5021594;28;20025;-75
2023/06/29 13:22:48;;;;;;;4.55;2.20;;;;;;;;;;5022547;28;20462;-76
2023/06/29 13:25:14;;;;;;;8.45;2.50;;;;;;;;;;5022116;28;20066;-75
2023/06/29 13:27:41;;;;;;;3.70;2.00;;;;;;;;;;5023151;28;20039;-75
2023/06/29 13:30:08;;;;;;;5.72;2.45;;;;;;;;;;5025206;28;20412;-74
2023/06/29 13:32:34;;;;;;;4.78;2.10;;;;;;;;;;5023507;28;20029;-75
2023/06/29 13:35:00;;;;;;;4.10;2.25;;;;;;;;;;5027319;28;20363;-75
2023/06/29 13:37:28;;;;;;;3.95;2.10;;;;;;;;;;5023323;28;20036;-75
2023/06/29 13:39:54;;;;;;;4.20;2.90;;;;;;;;;;5025181;28;20040;-74
2023/06/29 13:42:20;;;;;;;2.92;2.13;;;;;;;;;;5023315;28;20029;-75
2023/06/29 13:44:46;;;;;;;4.68;2.35;;;;;;;;;;5026221;28;20059;-75
2023/06/29 13:47:20;;;;;;;3.83;2.03;;;;;;;;;;5026391;28;20053;-76
2023/06/29 13:49:46;;;;;;;4.70;2.47;;;;;;;;;;5029673;28;20265;-75
2023/06/29 13:52:12;;;;;;;4.60;2.13;;;;;;;;;;5025898;28;20163;-74
2023/06/29 13:54:39;;;;;;;4.35;2.15;;;;;;;;;;5020756;28;20025;-75
2023/06/29 13:57:06;;;;;;;4.70;1.92;;;;;;;;;;5023162;28;20041;-74
2023/06/29 13:59:32;;;;;;;3.72;2.25;;;;;;;;;;5035325;28;20029;-75
2023/06/29 14:01:58;;;;;;;4.32;2.20;;;;;;;;;;5028958;28;20554;-75
2023/06/29 14:04:25;;;;;;;3.35;2.33;;;;;;;;;;5020052;28;20042;-76
2023/06/29 14:06:51;;;;;;;2.85;2.17;;;;;;;;;;5024965;28;20053;-76
2023/06/29 14:09:19;;;;;;;5.55;2.30;;;;;;;;;;5021896;28;20596;-76
2023/06/29 14:11:45;;;;;;;4.10;2.25;;;;;;;;;;5024944;28;20044;-75
2023/06/29 14:14:11;;;;;;;6.32;2.30;;;;;;;;;;5023425;28;20033;-76
2023/06/29 14:16:38;;;;;;;5.60;2.30;;;;;;;;;;5027554;28;20042;-76
2023/06/29 14:19:04;;;;;;;5.53;2.10;;;;;;;;;;5021649;28;20388;-76
2023/06/29 14:21:30;;;;;;;6.63;2.30;;;;;;;;;;5023331;28;20025;-76
2023/06/29 14:23:56;;;;;;;3.33;2.17;;;;;;;;;;5023170;28;20029;-75
2023/06/29 14:26:23;;;;;;;5.65;2.30;;;;;;;;;;5026551;28;20405;-75
2023/06/29 14:28:49;;;;;;;4.97;2.42;;;;;;;;;;5023000;28;20385;-76
2023/06/29 14:31:17;;;;;;;6.93;2.85;;;;;;;;;;5023996;28;20076;-76
2023/06/29 14:33:44;;;;;;;6.30;2.65;;;;;;;;;;5023580;28;21418;-77
2023/06/29 14:36:10;;;;;;;5.28;2.30;;;;;;;;;;5023578;28;20253;-76
2023/06/29 14:38:36;;;;;;;6.03;2.15;;;;;;;;;;5026981;28;20029;-75
2023/06/29 14:41:02;;;;;;;3.72;2.22;;;;;;;;;;5025026;28;20032;-75